createdAt,value
2019-03-21T00:03:16.178Z,102943.94
2019-03-21T00:08:11.785Z,102944.26
2019-03-21T00:13:06.128Z,102943.38
2019-03-21T00:18:19.343Z,102950.55
2019-03-21T00:23:13.245Z,102954.69
2019-03-21T00:28:07.351Z,102960.09
2019-03-21T00:33:01.461Z,102957.28
2019-03-21T00:37:55.634Z,102953.98
2019-03-21T00:42:49.669Z,102950.94
2019-03-21T00:47:44.029Z,102948.83
2019-03-21T00:52:38.219Z,102951.18
2019-03-21T00:57:32.242Z,102953.98
2019-03-21T01:02:28.539Z,102946.04
2019-03-21T01:07:22.413Z,102944.50
2019-03-21T01:12:16.766Z,102939.69
2019-03-21T01:17:11.915Z,102940.34
2019-03-21T01:22:06.970Z,102933.09
2019-03-21T01:27:00.878Z,102935.02
2019-03-21T01:31:54.816Z,102944.67
2019-03-21T01:36:48.845Z,102943.45
2019-03-21T01:41:42.846Z,102943.76
2019-03-21T01:46:36.857Z,102948.98
2019-03-21T01:51:30.810Z,102946.31
2019-03-21T01:56:25.479Z,102948.66
2019-03-21T02:01:19.406Z,102934.34
2019-03-21T02:06:13.468Z,102938.28
2019-03-21T02:11:07.502Z,102933.36
2019-03-21T02:16:01.539Z,102934.56
2019-03-21T02:20:55.534Z,102932.67
2019-03-21T02:25:50.319Z,102930.80
2019-03-21T02:30:44.295Z,102929.35
2019-03-21T02:35:38.370Z,102924.19
2019-03-21T02:40:32.506Z,102925.30
2019-03-21T02:45:26.453Z,102925.51
2019-03-21T02:50:27.887Z,102915.56
2019-03-21T02:55:22.016Z,102923.91
2019-03-21T03:00:19.384Z,102916.33
2019-03-21T03:05:18.242Z,102920.50
2019-03-21T03:10:15.087Z,102921.36
2019-03-21T03:15:22.792Z,102912.28
2019-03-21T03:20:10.875Z,102908.30
2019-03-21T03:25:05.488Z,102914.20
2019-03-21T03:29:59.566Z,102909.59
2019-03-21T03:34:53.611Z,102909.10
2019-03-21T03:39:47.587Z,102922.44
2019-03-21T03:44:41.508Z,102922.61
2019-03-21T03:49:35.468Z,102925.52
2019-03-21T03:54:29.490Z,102932.20
2019-03-21T03:59:23.425Z,102932.57
2019-03-21T04:04:17.342Z,102935.92
2019-03-21T04:09:11.559Z,102939.38
2019-03-21T04:14:05.684Z,102938.72
2019-03-21T04:18:59.664Z,102941.88
2019-03-21T04:23:53.723Z,102942.78
2019-03-21T04:28:47.732Z,102950.75
2019-03-21T04:33:42.513Z,102944.76
2019-03-21T04:38:36.659Z,102943.62
2019-03-21T04:43:30.688Z,102939.68
2019-03-21T04:48:24.717Z,102940.00
2019-03-21T04:53:18.699Z,102947.03
2019-03-21T04:58:12.615Z,102948.00
2019-03-21T05:03:07.905Z,102949.92
2019-03-21T05:08:21.005Z,102948.97
2019-03-21T05:13:14.951Z,102950.17
2019-03-21T05:18:19.630Z,102955.76
2019-03-21T05:23:13.563Z,102954.06
2019-03-21T05:28:07.508Z,102960.20
2019-03-21T05:33:01.526Z,102970.22
2019-03-21T05:37:55.470Z,102971.33
2019-03-21T05:42:55.649Z,102976.30
2019-03-21T05:47:49.599Z,102975.17
2019-03-21T05:52:43.768Z,102972.75
2019-03-21T05:57:38.000Z,102977.25
2019-03-21T06:02:32.072Z,102981.81
2019-03-21T06:08:02.547Z,102977.97
2019-03-21T06:12:56.545Z,102981.22
2019-03-21T06:18:27.566Z,102982.46
2019-03-21T06:24:04.190Z,102995.47
2019-03-21T06:28:58.344Z,102992.70
2019-03-21T06:33:52.245Z,103001.92
2019-03-21T06:38:46.366Z,102999.38
2019-03-21T06:43:40.317Z,102996.79
2019-03-21T06:48:34.411Z,102998.72
2019-03-21T06:53:28.433Z,102994.46
2019-03-21T06:58:22.372Z,102988.98
2019-03-21T07:03:16.630Z,102977.78
2019-03-21T07:08:11.137Z,102979.16
2019-03-21T07:13:05.460Z,102977.95
2019-03-21T07:17:59.588Z,102970.02
2019-03-21T07:22:53.701Z,102964.08
2019-03-21T07:27:47.849Z,102963.53
2019-03-21T07:32:41.989Z,102962.92
2019-03-21T07:37:36.420Z,102961.91
2019-03-21T07:42:30.393Z,102967.75
2019-03-21T07:47:24.545Z,102965.87
2019-03-21T07:52:18.504Z,102954.71
2019-03-21T07:57:12.528Z,102955.36
2019-03-21T08:02:06.561Z,102947.47
2019-03-21T08:07:00.682Z,102948.58
2019-03-21T08:11:54.733Z,102943.27
2019-03-21T08:16:48.766Z,102939.17
2019-03-21T08:21:42.854Z,102935.19
2019-03-21T08:26:36.910Z,102935.47
2019-03-21T08:31:30.845Z,102931.45
2019-03-21T08:36:24.883Z,102930.42
2019-03-21T08:41:18.922Z,102929.80
2019-03-21T08:46:13.023Z,102923.17
2019-03-21T08:51:08.675Z,102921.45
2019-03-21T08:56:03.050Z,102922.84
2019-03-21T09:00:57.202Z,102922.95
2019-03-21T09:05:51.394Z,102921.09
2019-03-21T09:10:46.658Z,102918.03
2019-03-21T09:15:40.747Z,102919.97
2019-03-21T09:20:34.828Z,102917.44
2019-03-21T09:25:30.315Z,102911.59
2019-03-21T09:30:25.708Z,102908.48
2019-03-21T09:35:19.947Z,102909.06
2019-03-21T09:40:14.425Z,102911.78
2019-03-21T09:45:09.213Z,102916.09
2019-03-21T09:50:03.460Z,102910.44
2019-03-21T09:54:57.614Z,102907.77
2019-03-21T09:59:51.778Z,102900.56
2019-03-21T10:04:45.912Z,102918.31
2019-03-21T10:09:50.352Z,102913.78
2019-03-21T10:14:44.470Z,102915.92
2019-03-21T10:19:38.883Z,102908.66
2019-03-21T10:24:33.500Z,102915.70
2019-03-21T10:29:29.132Z,102921.31
2019-03-21T10:34:24.195Z,102909.69
2019-03-21T10:39:18.849Z,102914.17
2019-03-21T10:44:13.351Z,102909.14
2019-03-21T10:49:08.293Z,102908.20
2019-03-21T10:54:02.611Z,102897.16
2019-03-21T10:58:57.218Z,102901.55
2019-03-21T11:03:51.801Z,102897.90
2019-03-21T11:08:46.066Z,102887.59
2019-03-21T11:13:41.197Z,102892.96
2019-03-21T11:18:36.248Z,102885.53
2019-03-21T11:23:30.865Z,102883.95
2019-03-21T11:28:25.004Z,102871.69
2019-03-21T11:33:19.070Z,102866.39
2019-03-21T11:38:13.656Z,102862.59
2019-03-21T11:43:10.017Z,102858.79
2019-03-21T11:48:04.625Z,102845.98
2019-03-21T11:52:59.210Z,102847.41
2019-03-21T11:57:54.434Z,102843.33
2019-03-21T12:02:48.541Z,102831.83
2019-03-21T12:07:42.564Z,102833.37
2019-03-21T12:12:36.917Z,102823.45
2019-03-21T12:17:30.879Z,102814.59
2019-03-21T12:22:29.819Z,102805.55
2019-03-21T12:27:20.739Z,102803.48
2019-03-21T12:32:15.132Z,102793.59
2019-03-21T12:37:09.439Z,102786.45
2019-03-21T12:42:04.029Z,102777.62
2019-03-21T12:47:00.046Z,102779.48
2019-03-21T12:51:54.461Z,102783.70
2019-03-21T12:56:48.884Z,102773.89
2019-03-21T13:01:43.024Z,102773.06
2019-03-21T13:06:37.096Z,102768.77
2019-03-21T13:11:31.382Z,102757.58
2019-03-21T13:16:25.878Z,102756.61
2019-03-21T13:21:20.342Z,102741.47
2019-03-21T13:26:14.490Z,102745.05
2019-03-21T13:31:08.601Z,102730.70
2019-03-21T13:36:02.615Z,102733.94
2019-03-21T13:40:56.791Z,102727.61
2019-03-21T13:45:50.843Z,102716.73
2019-03-21T13:50:44.801Z,102711.46
2019-03-21T13:55:47.482Z,102711.85
2019-03-21T14:00:41.901Z,102708.50
2019-03-21T14:05:36.429Z,102693.19
2019-03-21T14:10:32.364Z,102689.17
2019-03-21T14:15:27.124Z,102677.58
2019-03-21T14:20:21.491Z,102667.03
2019-03-21T14:25:15.845Z,102674.69
2019-03-21T14:30:11.992Z,102668.02
2019-03-21T14:35:07.622Z,102667.48
2019-03-21T14:40:01.664Z,102651.59
2019-03-21T14:44:55.681Z,102650.67
2019-03-21T14:49:50.142Z,102656.22
2019-03-21T14:54:53.384Z,102660.73
2019-03-21T14:59:57.180Z,102656.35
2019-03-21T15:04:51.205Z,102658.73
2019-03-21T15:09:45.276Z,102651.25
2019-03-21T15:14:39.422Z,102649.88
2019-03-21T15:19:33.545Z,102644.50
2019-03-21T15:24:27.735Z,102639.48
2019-03-21T15:29:21.868Z,102636.92
2019-03-21T15:34:16.047Z,102630.59
2019-03-21T15:39:10.183Z,102631.55
2019-03-21T15:44:04.328Z,102630.74
2019-03-21T15:48:58.371Z,102628.92
2019-03-21T15:53:56.383Z,102627.73
2019-03-21T15:58:48.159Z,102620.31
2019-03-21T16:03:42.181Z,102622.52
2019-03-21T16:08:36.066Z,102617.63
2019-03-21T16:13:30.106Z,102619.95
2019-03-21T16:18:24.118Z,102613.78
2019-03-21T16:23:18.280Z,102614.52
2019-03-21T16:28:12.287Z,102605.78
2019-03-21T16:33:06.357Z,102610.48
2019-03-21T16:38:00.560Z,102609.05
2019-03-21T16:42:56.744Z,102609.83
2019-03-21T16:47:50.791Z,102605.69
2019-03-21T16:52:44.736Z,102610.53
2019-03-21T16:57:38.747Z,102609.52
2019-03-21T17:02:32.906Z,102614.36
2019-03-21T17:07:26.957Z,102612.16
2019-03-21T17:12:21.006Z,102615.78
2019-03-21T17:17:15.138Z,102618.90
2019-03-21T17:22:09.326Z,102616.91
2019-03-21T17:27:04.874Z,102628.12
2019-03-21T17:31:59.111Z,102623.80
2019-03-21T17:36:53.615Z,102623.72
2019-03-21T17:41:47.667Z,102625.67
2019-03-21T17:46:42.115Z,102630.16
2019-03-21T17:51:36.145Z,102634.55
2019-03-21T17:56:30.280Z,102637.66
2019-03-21T18:01:24.693Z,102642.04
2019-03-21T18:06:19.019Z,102635.66
2019-03-21T18:11:13.498Z,102638.86
2019-03-21T18:16:09.702Z,102648.33
2019-03-21T18:21:04.230Z,102653.29
2019-03-21T18:25:59.749Z,102655.53
2019-03-21T18:30:54.166Z,102651.81
2019-03-21T18:35:49.505Z,102654.17
2019-03-21T18:40:43.660Z,102659.22
2019-03-21T18:45:37.564Z,102656.58
2019-03-21T18:50:31.612Z,102666.47
2019-03-21T18:55:25.693Z,102669.45
2019-03-21T19:00:20.521Z,102662.39
2019-03-21T19:05:14.711Z,102666.63
2019-03-21T19:10:09.258Z,102673.47
2019-03-21T19:15:03.721Z,102666.97
2019-03-21T19:19:57.763Z,102668.77
2019-03-21T19:24:51.861Z,102676.79
2019-03-21T19:29:45.768Z,102673.73
2019-03-21T19:34:39.962Z,102677.87
2019-03-21T19:39:34.581Z,102678.16
2019-03-21T19:44:28.869Z,102681.42
2019-03-21T19:49:23.276Z,102682.88
2019-03-21T19:54:17.763Z,102677.31
2019-03-21T19:59:13.042Z,102683.50
2019-03-21T20:04:07.305Z,102682.58
2019-03-21T20:09:01.811Z,102678.75
2019-03-21T20:13:56.182Z,102680.97
2019-03-21T20:18:50.399Z,102684.87
2019-03-21T20:23:44.832Z,102684.66
2019-03-21T20:28:39.109Z,102682.59
2019-03-21T20:33:33.406Z,102682.53
2019-03-21T20:38:27.889Z,102685.55
2019-03-21T20:43:25.063Z,102681.29
2019-03-21T20:48:27.764Z,102675.94
2019-03-21T20:53:21.958Z,102672.36
2019-03-21T20:58:16.304Z,102670.63
2019-03-21T21:03:10.698Z,102676.16
2019-03-21T21:08:05.546Z,102672.94
2019-03-21T21:13:00.718Z,102672.06
2019-03-21T21:17:55.153Z,102665.46
2019-03-21T21:22:49.851Z,102667.59
2019-03-21T21:27:49.778Z,102667.44
2019-03-21T21:32:40.889Z,102670.30
2019-03-21T21:37:35.689Z,102662.66
2019-03-21T21:42:30.849Z,102658.50
2019-03-21T21:47:25.400Z,102658.92
2019-03-21T21:52:20.603Z,102657.45
2019-03-21T21:57:16.556Z,102656.84
2019-03-21T22:02:10.865Z,102656.89
2019-03-21T22:07:05.353Z,102652.25
2019-03-21T22:11:59.695Z,102647.91
2019-03-21T22:16:54.606Z,102648.62
2019-03-21T22:21:49.171Z,102645.27
2019-03-21T22:26:43.873Z,102653.08
2019-03-21T22:31:38.582Z,102648.25
2019-03-21T22:36:32.965Z,102649.31
2019-03-21T22:41:29.131Z,102648.44
2019-03-21T22:46:23.469Z,102654.11
2019-03-21T22:51:17.967Z,102654.44
2019-03-21T22:56:12.519Z,102643.39
2019-03-21T23:01:07.166Z,102640.48
2019-03-21T23:06:01.625Z,102638.80
2019-03-21T23:10:56.080Z,102635.08
2019-03-21T23:15:50.631Z,102636.61
2019-03-21T23:20:44.952Z,102628.17
2019-03-21T23:25:39.245Z,102634.95
2019-03-21T23:30:33.854Z,102631.16
2019-03-21T23:35:28.258Z,102633.41
2019-03-21T23:40:22.623Z,102631.30
2019-03-21T23:45:19.981Z,102625.66
2019-03-21T23:50:14.406Z,102624.36
2019-03-21T23:55:09.420Z,102627.82
